sensor_id;sensor_type;location;lat;lon;timestamp;P1;durP1;ratioP1;P2;durP2;ratioP2
41217;SDS011;26950;50.960;7.138;2022-08-01T00:02:15;4.57;;;2.47;;
41217;SDS011;26950;50.960;7.138;2022-08-01T00:04:41;3.45;;;2.53;;
41217;SDS011;26950;50.960;7.138;2022-08-01T00:07:08;5.43;;;2.90;;
41217;SDS011;26950;50.960;7.138;2022-08-01T00:09:34;6.05;;;2.40;;
41217;SDS011;26950;50.960;7.138;2022-08-01T00:12:02;6.97;;;2.60;;
41217;SDS011;26950;50.960;7.138;2022-08-01T00:14:29;4.60;;;2.53;;
41217;SDS011;26950;50.960;7.138;2022-08-01T00:16:56;4.03;;;2.33;;
41217;SDS011;26950;50.960;7.138;2022-08-01T00:19:22;3.97;;;2.20;;
41217;SDS011;26950;50.960;7.138;2022-08-01T00:21:49;5.40;;;2.25;;
41217;SDS011;26950;50.960;7.138;2022-08-01T00:24:15;3.85;;;2.20;;
41217;SDS011;26950;50.960;7.138;2022-08-01T00:26:42;4.40;;;1.88;;
41217;SDS011;26950;50.960;7.138;2022-08-01T00:29:09;4.95;;;2.00;;
41217;SDS011;26950;50.960;7.138;2022-08-01T00:31:36;4.80;;;2.08;;
41217;SDS011;26950;50.960;7.138;2022-08-01T00:34:02;3.88;;;1.70;;
41217;SDS011;26950;50.960;7.138;2022-08-01T00:36:29;2.80;;;1.52;;
41217;SDS011;26950;50.960;7.138;2022-08-01T00:38:55;3.00;;;1.65;;
41217;SDS011;26950;50.960;7.138;2022-08-01T00:41:21;2.65;;;1.58;;
41217;SDS011;26950;50.960;7.138;2022-08-01T00:43:48;5.20;;;1.50;;
41217;SDS011;26950;50.960;7.138;2022-08-01T00:46:16;3.13;;;1.80;;
41217;SDS011;26950;50.960;7.138;2022-08-01T00:48:42;4.15;;;1.85;;
41217;SDS011;26950;50.960;7.138;2022-08-01T00:51:09;3.72;;;1.60;;
41217;SDS011;26950;50.960;7.138;2022-08-01T00:53:36;3.47;;;1.42;;
41217;SDS011;26950;50.960;7.138;2022-08-01T00:56:03;3.25;;;1.52;;
41217;SDS011;26950;50.960;7.138;2022-08-01T00:58:30;6.85;;;1.92;;
41217;SDS011;26950;50.960;7.138;2022-08-01T01:00:57;2.28;;;1.50;;
41217;SDS011;26950;50.960;7.138;2022-08-01T01:03:25;4.47;;;1.60;;
41217;SDS011;26950;50.960;7.138;2022-08-01T01:05:56;3.60;;;1.70;;
41217;SDS011;26950;50.960;7.138;2022-08-01T01:08:40;3.20;;;1.67;;
41217;SDS011;26950;50.960;7.138;2022-08-01T01:11:10;1.73;;;1.63;;
41217;SDS011;26950;50.960;7.138;2022-08-01T01:13:45;3.75;;;1.60;;
41217;SDS011;26950;50.960;7.138;2022-08-01T01:16:16;2.83;;;1.70;;
41217;SDS011;26950;50.960;7.138;2022-08-01T01:18:46;3.45;;;1.85;;
41217;SDS011;26950;50.960;7.138;2022-08-01T01:21:26;4.53;;;1.52;;
41217;SDS011;26950;50.960;7.138;2022-08-01T01:24:13;3.72;;;1.80;;
41217;SDS011;26950;50.960;7.138;2022-08-01T01:26:49;2.40;;;1.70;;
41217;SDS011;26950;50.960;7.138;2022-08-01T01:29:23;2.72;;;1.60;;
41217;SDS011;26950;50.960;7.138;2022-08-01T01:31:56;6.70;;;1.70;;
41217;SDS011;26950;50.960;7.138;2022-08-01T01:34:28;4.35;;;1.77;;
41217;SDS011;26950;50.960;7.138;2022-08-01T01:36:58;4.72;;;1.88;;
41217;SDS011;26950;50.960;7.138;2022-08-01T01:39:26;4.57;;;2.00;;
41217;SDS011;26950;50.960;7.138;2022-08-01T01:41:55;4.13;;;2.05;;
41217;SDS011;26950;50.960;7.138;2022-08-01T01:44:25;3.55;;;2.15;;
41217;SDS011;26950;50.960;7.138;2022-08-01T01:46:53;2.67;;;1.80;;
41217;SDS011;26950;50.960;7.138;2022-08-01T01:49:23;3.05;;;1.88;;
41217;SDS011;26950;50.960;7.138;2022-08-01T01:51:52;2.17;;;1.80;;
41217;SDS011;26950;50.960;7.138;2022-08-01T01:54:21;4.93;;;2.30;;
41217;SDS011;26950;50.960;7.138;2022-08-01T01:56:50;5.13;;;2.20;;
41217;SDS011;26950;50.960;7.138;2022-08-01T01:59:18;5.43;;;2.47;;
41217;SDS011;26950;50.960;7.138;2022-08-01T02:01:48;3.97;;;2.30;;
41217;SDS011;26950;50.960;7.138;2022-08-01T02:04:17;6.20;;;2.70;;
41217;SDS011;26950;50.960;7.138;2022-08-01T02:06:46;3.22;;;2.50;;
41217;SDS011;26950;50.960;7.138;2022-08-01T02:09:14;4.82;;;2.33;;
41217;SDS011;26950;50.960;7.138;2022-08-01T02:11:43;5.07;;;2.40;;
41217;SDS011;26950;50.960;7.138;2022-08-01T02:14:11;4.75;;;2.70;;
41217;SDS011;26950;50.960;7.138;2022-08-01T02:16:40;6.57;;;2.63;;
41217;SDS011;26950;50.960;7.138;2022-08-01T02:19:10;6.55;;;2.80;;
41217;SDS011;26950;50.960;7.138;2022-08-01T02:21:38;4.65;;;2.90;;
41217;SDS011;26950;50.960;7.138;2022-08-01T02:24:10;4.93;;;2.80;;
41217;SDS011;26950;50.960;7.138;2022-08-01T02:26:41;4.40;;;2.30;;
41217;SDS011;26950;50.960;7.138;2022-08-01T02:29:13;4.72;;;2.67;;
41217;SDS011;26950;50.960;7.138;2022-08-01T02:31:44;6.40;;;2.67;;
41217;SDS011;26950;50.960;7.138;2022-08-01T02:34:15;3.92;;;2.60;;
41217;SDS011;26950;50.960;7.138;2022-08-01T02:36:44;4.88;;;2.85;;
41217;SDS011;26950;50.960;7.138;2022-08-01T02:39:13;4.55;;;2.33;;
41217;SDS011;26950;50.960;7.138;2022-08-01T02:41:43;3.38;;;2.33;;
41217;SDS011;26950;50.960;7.138;2022-08-01T02:44:14;6.22;;;2.60;;
41217;SDS011;26950;50.960;7.138;2022-08-01T02:46:46;4.03;;;2.55;;
41217;SDS011;26950;50.960;7.138;2022-08-01T02:49:18;5.68;;;2.50;;
41217;SDS011;26950;50.960;7.138;2022-08-01T02:51:46;5.07;;;2.58;;
41217;SDS011;26950;50.960;7.138;2022-08-01T02:54:15;6.00;;;2.42;;
41217;SDS011;26950;50.960;7.138;2022-08-01T02:56:44;4.20;;;2.30;;
41217;SDS011;26950;50.960;7.138;2022-08-01T02:59:13;8.02;;;2.72;;
41217;SDS011;26950;50.960;7.138;2022-08-01T03:01:42;4.63;;;2.85;;
41217;SDS011;26950;50.960;7.138;2022-08-01T03:04:11;5.43;;;3.10;;
41217;SDS011;26950;50.960;7.138;2022-08-01T03:06:39;6.70;;;3.40;;
41217;SDS011;26950;50.960;7.138;2022-08-01T03:09:07;4.75;;;3.00;;
41217;SDS011;26950;50.960;7.138;2022-08-01T03:11:35;4.78;;;3.00;;
41217;SDS011;26950;50.960;7.138;2022-08-01T03:14:05;3.70;;;2.72;;
41217;SDS011;26950;50.960;7.138;2022-08-01T03:16:35;6.53;;;3.05;;
41217;SDS011;26950;50.960;7.138;2022-08-01T03:19:04;4.72;;;3.00;;
41217;SDS011;26950;50.960;7.138;2022-08-01T03:21:33;6.25;;;3.35;;
41217;SDS011;26950;50.960;7.138;2022-08-01T03:24:01;4.82;;;3.30;;
41217;SDS011;26950;50.960;7.138;2022-08-01T03:26:31;10.20;;;3.20;;
41217;SDS011;26950;50.960;7.138;2022-08-01T03:29:02;7.47;;;3.22;;
41217;SDS011;26950;50.960;7.138;2022-08-01T03:31:32;6.43;;;3.35;;
41217;SDS011;26950;50.960;7.138;2022-08-01T03:34:00;3.67;;;3.00;;
41217;SDS011;26950;50.960;7.138;2022-08-01T03:36:27;6.88;;;3.53;;
41217;SDS011;26950;50.960;7.138;2022-08-01T03:38:57;6.03;;;3.90;;
41217;SDS011;26950;50.960;7.138;2022-08-01T03:41:28;7.55;;;3.42;;
41217;SDS011;26950;50.960;7.138;2022-08-01T03:44:00;4.63;;;3.53;;
41217;SDS011;26950;50.960;7.138;2022-08-01T03:46:33;6.60;;;3.45;;
41217;SDS011;26950;50.960;7.138;2022-08-01T03:49:03;6.82;;;3.50;;
41217;SDS011;26950;50.960;7.138;2022-08-01T03:51:33;5.47;;;3.60;;
41217;SDS011;26950;50.960;7.138;2022-08-01T03:54:02;7.82;;;3.65;;
41217;SDS011;26950;50.960;7.138;2022-08-01T03:56:32;7.82;;;3.80;;
41217;SDS011;26950;50.960;7.138;2022-08-01T03:58:59;5.63;;;3.58;;
41217;SDS011;26950;50.960;7.138;2022-08-01T04:01:28;5.32;;;3.45;;
41217;SDS011;26950;50.960;7.138;2022-08-01T04:03:57;9.48;;;3.70;;
41217;SDS011;26950;50.960;7.138;2022-08-01T04:06:24;6.63;;;3.53;;
41217;SDS011;26950;50.960;7.138;2022-08-01T04:08:50;6.97;;;3.67;;
41217;SDS011;26950;50.960;7.138;2022-08-01T04:11:21;6.85;;;3.55;;
41217;SDS011;26950;50.960;7.138;2022-08-01T04:13:50;6.55;;;3.90;;
41217;SDS011;26950;50.960;7.138;2022-08-01T04:16:17;5.53;;;3.78;;
41217;SDS011;26950;50.960;7.138;2022-08-01T04:18:43;5.57;;;3.33;;
41217;SDS011;26950;50.960;7.138;2022-08-01T04:21:10;6.78;;;3.70;;
41217;SDS011;26950;50.960;7.138;2022-08-01T04:23:37;6.80;;;3.38;;
41217;SDS011;26950;50.960;7.138;2022-08-01T04:26:07;6.18;;;3.50;;
41217;SDS011;26950;50.960;7.138;2022-08-01T04:28:35;4.97;;;3.40;;
41217;SDS011;26950;50.960;7.138;2022-08-01T04:31:06;6.28;;;3.45;;
41217;SDS011;26950;50.960;7.138;2022-08-01T04:33:36;5.50;;;3.25;;
41217;SDS011;26950;50.960;7.138;2022-08-01T04:36:04;8.02;;;4.00;;
41217;SDS011;26950;50.960;7.138;2022-08-01T04:38:34;6.70;;;3.90;;
41217;SDS011;26950;50.960;7.138;2022-08-01T04:41:03;7.28;;;3.70;;
41217;SDS011;26950;50.960;7.138;2022-08-01T04:43:32;7.78;;;4.00;;
41217;SDS011;26950;50.960;7.138;2022-08-01T04:45:59;5.82;;;4.15;;
41217;SDS011;26950;50.960;7.138;2022-08-01T04:48:30;6.05;;;3.60;;
41217;SDS011;26950;50.960;7.138;2022-08-01T04:50:57;6.53;;;4.13;;
41217;SDS011;26950;50.960;7.138;2022-08-01T04:53:24;7.95;;;4.00;;
41217;SDS011;26950;50.960;7.138;2022-08-01T04:55:52;7.40;;;3.70;;
41217;SDS011;26950;50.960;7.138;2022-08-01T04:58:19;8.73;;;4.00;;
41217;SDS011;26950;50.960;7.138;2022-08-01T05:00:45;6.88;;;3.70;;
41217;SDS011;26950;50.960;7.138;2022-08-01T05:03:12;10.75;;;4.25;;
41217;SDS011;26950;50.960;7.138;2022-08-01T05:05:40;8.27;;;4.10;;
41217;SDS011;26950;50.960;7.138;2022-08-01T05:08:06;8.55;;;4.20;;
41217;SDS011;26950;50.960;7.138;2022-08-01T05:10:33;7.75;;;4.55;;
41217;SDS011;26950;50.960;7.138;2022-08-01T05:12:59;7.00;;;4.38;;
41217;SDS011;26950;50.960;7.138;2022-08-01T05:15:26;7.65;;;4.22;;
41217;SDS011;26950;50.960;7.138;2022-08-01T05:17:52;8.77;;;4.80;;
41217;SDS011;26950;50.960;7.138;2022-08-01T05:20:19;8.35;;;5.07;;
41217;SDS011;26950;50.960;7.138;2022-08-01T05:22:47;9.68;;;5.38;;
41217;SDS011;26950;50.960;7.138;2022-08-01T05:25:14;7.65;;;4.82;;
41217;SDS011;26950;50.960;7.138;2022-08-01T05:27:40;8.07;;;5.03;;
41217;SDS011;26950;50.960;7.138;2022-08-01T05:30:07;8.07;;;4.90;;
41217;SDS011;26950;50.960;7.138;2022-08-01T05:32:34;7.15;;;5.50;;
41217;SDS011;26950;50.960;7.138;2022-08-01T05:35:01;9.40;;;5.50;;
41217;SDS011;26950;50.960;7.138;2022-08-01T05:37:28;9.05;;;5.47;;
41217;SDS011;26950;50.960;7.138;2022-08-01T05:39:56;9.38;;;5.88;;
41217;SDS011;26950;50.960;7.138;2022-08-01T05:42:23;11.80;;;6.07;;
41217;SDS011;26950;50.960;7.138;2022-08-01T05:44:49;8.52;;;5.55;;
41217;SDS011;26950;50.960;7.138;2022-08-01T05:47:16;10.43;;;5.57;;
41217;SDS011;26950;50.960;7.138;2022-08-01T05:49:42;8.88;;;5.97;;
41217;SDS011;26950;50.960;7.138;2022-08-01T05:52:09;11.75;;;6.30;;
41217;SDS011;26950;50.960;7.138;2022-08-01T05:54:36;10.50;;;6.38;;
41217;SDS011;26950;50.960;7.138;2022-08-01T05:57:04;13.23;;;6.80;;
41217;SDS011;26950;50.960;7.138;2022-08-01T05:59:30;8.75;;;6.68;;
41217;SDS011;26950;50.960;7.138;2022-08-01T06:01:57;12.32;;;7.35;;
41217;SDS011;26950;50.960;7.138;2022-08-01T06:04:23;12.40;;;7.05;;
41217;SDS011;26950;50.960;7.138;2022-08-01T06:06:50;10.82;;;6.63;;
41217;SDS011;26950;50.960;7.138;2022-08-01T06:09:16;12.55;;;6.50;;
41217;SDS011;26950;50.960;7.138;2022-08-01T06:11:43;10.93;;;7.78;;
41217;SDS011;26950;50.960;7.138;2022-08-01T06:14:11;11.38;;;6.95;;
41217;SDS011;26950;50.960;7.138;2022-08-01T06:16:37;9.27;;;6.22;;
41217;SDS011;26950;50.960;7.138;2022-08-01T06:19:03;13.18;;;6.95;;
41217;SDS011;26950;50.960;7.138;2022-08-01T06:21:30;13.80;;;8.60;;
41217;SDS011;26950;50.960;7.138;2022-08-01T06:23:56;14.13;;;8.70;;
41217;SDS011;26950;50.960;7.138;2022-08-01T06:26:23;12.82;;;7.55;;
41217;SDS011;26950;50.960;7.138;2022-08-01T06:28:49;10.27;;;7.72;;
41217;SDS011;26950;50.960;7.138;2022-08-01T06:31:17;13.20;;;8.90;;
41217;SDS011;26950;50.960;7.138;2022-08-01T06:33:43;14.48;;;9.25;;
41217;SDS011;26950;50.960;7.138;2022-08-01T06:36:10;17.00;;;9.05;;
41217;SDS011;26950;50.960;7.138;2022-08-01T06:38:36;17.85;;;9.18;;
41217;SDS011;26950;50.960;7.138;2022-08-01T06:41:03;12.50;;;8.77;;
41217;SDS011;26950;50.960;7.138;2022-08-01T06:43:30;15.73;;;9.38;;
41217;SDS011;26950;50.960;7.138;2022-08-01T06:45:57;14.82;;;9.40;;
41217;SDS011;26950;50.960;7.138;2022-08-01T06:48:25;19.80;;;9.93;;
41217;SDS011;26950;50.960;7.138;2022-08-01T06:50:51;16.48;;;9.98;;
41217;SDS011;26950;50.960;7.138;2022-08-01T06:53:32;15.63;;;9.48;;
41217;SDS011;26950;50.960;7.138;2022-08-01T06:55:59;14.05;;;10.10;;
41217;SDS011;26950;50.960;7.138;2022-08-01T06:58:25;15.90;;;9.52;;
41217;SDS011;26950;50.960;7.138;2022-08-01T07:00:52;12.55;;;8.73;;
41217;SDS011;26950;50.960;7.138;2022-08-01T07:03:18;15.20;;;10.20;;
41217;SDS011;26950;50.960;7.138;2022-08-01T07:05:46;17.30;;;9.93;;
41217;SDS011;26950;50.960;7.138;2022-08-01T07:08:12;14.43;;;8.60;;
41217;SDS011;26950;50.960;7.138;2022-08-01T07:10:39;15.02;;;9.40;;
41217;SDS011;26950;50.960;7.138;2022-08-01T07:13:05;14.65;;;8.23;;
41217;SDS011;26950;50.960;7.138;2022-08-01T07:15:31;16.33;;;9.50;;
41217;SDS011;26950;50.960;7.138;2022-08-01T07:17:58;15.07;;;9.77;;
41217;SDS011;26950;50.960;7.138;2022-08-01T07:20:26;13.95;;;9.23;;
41217;SDS011;26950;50.960;7.138;2022-08-01T07:22:54;17.00;;;9.93;;
41217;SDS011;26950;50.960;7.138;2022-08-01T07:25:20;14.55;;;10.40;;
41217;SDS011;26950;50.960;7.138;2022-08-01T07:27:47;14.65;;;9.05;;
41217;SDS011;26950;50.960;7.138;2022-08-01T07:30:13;13.80;;;9.88;;
41217;SDS011;26950;50.960;7.138;2022-08-01T07:32:40;15.23;;;9.05;;
41217;SDS011;26950;50.960;7.138;2022-08-01T07:35:06;13.15;;;8.82;;
41217;SDS011;26950;50.960;7.138;2022-08-01T07:37:33;13.23;;;9.02;;
41217;SDS011;26950;50.960;7.138;2022-08-01T07:40:01;18.25;;;10.98;;
41217;SDS011;26950;50.960;7.138;2022-08-01T07:42:29;14.70;;;8.88;;
41217;SDS011;26950;50.960;7.138;2022-08-01T07:44:55;13.20;;;9.70;;
41217;SDS011;26950;50.960;7.138;2022-08-01T07:47:23;12.02;;;9.20;;
41217;SDS011;26950;50.960;7.138;2022-08-01T07:49:50;15.57;;;9.77;;
41217;SDS011;26950;50.960;7.138;2022-08-01T07:52:17;13.13;;;8.90;;
41217;SDS011;26950;50.960;7.138;2022-08-01T07:54:43;11.95;;;8.75;;
41217;SDS011;26950;50.960;7.138;2022-08-01T07:57:11;16.40;;;9.60;;
41217;SDS011;26950;50.960;7.138;2022-08-01T07:59:37;16.50;;;8.90;;
41217;SDS011;26950;50.960;7.138;2022-08-01T08:02:04;15.48;;;9.13;;
41217;SDS011;26950;50.960;7.138;2022-08-01T08:04:30;12.07;;;8.27;;
41217;SDS011;26950;50.960;7.138;2022-08-01T08:06:56;11.90;;;8.70;;
41217;SDS011;26950;50.960;7.138;2022-08-01T08:09:23;12.70;;;8.60;;
41217;SDS011;26950;50.960;7.138;2022-08-01T08:11:49;11.50;;;8.27;;
41217;SDS011;26950;50.960;7.138;2022-08-01T08:14:17;12.60;;;8.07;;
41217;SDS011;26950;50.960;7.138;2022-08-01T08:16:44;11.13;;;8.20;;
41217;SDS011;26950;50.960;7.138;2022-08-01T08:19:11;10.65;;;7.40;;
41217;SDS011;26950;50.960;7.138;2022-08-01T08:21:37;8.43;;;6.97;;
41217;SDS011;26950;50.960;7.138;2022-08-01T08:24:04;11.57;;;6.80;;
41217;SDS011;26950;50.960;7.138;2022-08-01T08:26:46;11.18;;;6.80;;
41217;SDS011;26950;50.960;7.138;2022-08-01T08:29:13;10.10;;;6.70;;
41217;SDS011;26950;50.960;7.138;2022-08-01T08:31:41;11.30;;;6.82;;
41217;SDS011;26950;50.960;7.138;2022-08-01T08:34:08;12.52;;;7.05;;
41217;SDS011;26950;50.960;7.138;2022-08-01T08:36:34;10.20;;;7.15;;
41217;SDS011;26950;50.960;7.138;2022-08-01T08:39:01;9.43;;;6.65;;
41217;SDS011;26950;50.960;7.138;2022-08-01T08:41:28;9.98;;;6.97;;
41217;SDS011;26950;50.960;7.138;2022-08-01T08:43:55;11.77;;;6.90;;
41217;SDS011;26950;50.960;7.138;2022-08-01T08:46:23;8.68;;;7.00;;
41217;SDS011;26950;50.960;7.138;2022-08-01T08:48:52;10.85;;;6.20;;
41217;SDS011;26950;50.960;7.138;2022-08-01T08:51:19;9.32;;;5.93;;
41217;SDS011;26950;50.960;7.138;2022-08-01T08:53:47;7.45;;;5.22;;
41217;SDS011;26950;50.960;7.138;2022-08-01T08:56:13;8.13;;;4.85;;
41217;SDS011;26950;50.960;7.138;2022-08-01T08:58:41;9.32;;;5.82;;
41217;SDS011;26950;50.960;7.138;2022-08-01T09:01:10;10.63;;;5.60;;
41217;SDS011;26950;50.960;7.138;2022-08-01T09:03:38;8.25;;;5.90;;
41217;SDS011;26950;50.960;7.138;2022-08-01T09:06:06;9.10;;;5.80;;
41217;SDS011;26950;50.960;7.138;2022-08-01T09:08:33;8.82;;;5.22;;
41217;SDS011;26950;50.960;7.138;2022-08-01T09:10:59;8.25;;;5.13;;
41217;SDS011;26950;50.960;7.138;2022-08-01T09:13:26;6.60;;;4.78;;
41217;SDS011;26950;50.960;7.138;2022-08-01T09:15:53;7.28;;;4.78;;
41217;SDS011;26950;50.960;7.138;2022-08-01T09:18:28;8.07;;;4.82;;
41217;SDS011;26950;50.960;7.138;2022-08-01T09:23:44;8.90;;;4.70;;
41217;SDS011;26950;50.960;7.138;2022-08-01T09:26:12;8.00;;;4.80;;
41217;SDS011;26950;50.960;7.138;2022-08-01T09:28:41;6.72;;;4.53;;
41217;SDS011;26950;50.960;7.138;2022-08-01T09:31:09;7.10;;;4.03;;
41217;SDS011;26950;50.960;7.138;2022-08-01T09:33:51;4.95;;;3.63;;
41217;SDS011;26950;50.960;7.138;2022-08-01T09:36:21;4.45;;;3.78;;
41217;SDS011;26950;50.960;7.138;2022-08-01T09:38:49;5.95;;;3.85;;
41217;SDS011;26950;50.960;7.138;2022-08-01T09:41:17;7.82;;;4.47;;
41217;SDS011;26950;50.960;7.138;2022-08-01T09:43:54;7.28;;;3.90;;
41217;SDS011;26950;50.960;7.138;2022-08-01T09:46:20;5.78;;;4.20;;
41217;SDS011;26950;50.960;7.138;2022-08-01T09:48:57;6.47;;;3.67;;
41217;SDS011;26950;50.960;7.138;2022-08-01T09:51:29;6.78;;;4.00;;
41217;SDS011;26950;50.960;7.138;2022-08-01T09:53:58;6.75;;;4.07;;
41217;SDS011;26950;50.960;7.138;2022-08-01T09:56:35;5.50;;;3.88;;
41217;SDS011;26950;50.960;7.138;2022-08-01T09:59:02;7.82;;;3.80;;
41217;SDS011;26950;50.960;7.138;2022-08-01T10:01:41;8.63;;;3.80;;
41217;SDS011;26950;50.960;7.138;2022-08-01T10:04:09;5.07;;;3.50;;
41217;SDS011;26950;50.960;7.138;2022-08-01T10:06:39;4.60;;;3.40;;
41217;SDS011;26950;50.960;7.138;2022-08-01T10:09:07;7.93;;;3.33;;
41217;SDS011;26950;50.960;7.138;2022-08-01T10:11:35;6.63;;;4.00;;
41217;SDS011;26950;50.960;7.138;2022-08-01T10:14:04;7.10;;;4.15;;
41217;SDS011;26950;50.960;7.138;2022-08-01T10:16:32;7.93;;;4.00;;
41217;SDS011;26950;50.960;7.138;2022-08-01T10:19:00;5.32;;;3.72;;
41217;SDS011;26950;50.960;7.138;2022-08-01T10:21:28;6.13;;;4.18;;
41217;SDS011;26950;50.960;7.138;2022-08-01T10:23:59;5.45;;;3.42;;
41217;SDS011;26950;50.960;7.138;2022-08-01T10:26:28;5.55;;;3.67;;
41217;SDS011;26950;50.960;7.138;2022-08-01T10:28:57;4.88;;;3.33;;
41217;SDS011;26950;50.960;7.138;2022-08-01T10:31:24;3.92;;;3.50;;
41217;SDS011;26950;50.960;7.138;2022-08-01T10:33:50;4.97;;;3.25;;
41217;SDS011;26950;50.960;7.138;2022-08-01T10:36:18;5.15;;;3.65;;
41217;SDS011;26950;50.960;7.138;2022-08-01T10:38:46;4.63;;;3.83;;
41217;SDS011;26950;50.960;7.138;2022-08-01T10:41:14;5.68;;;3.25;;
41217;SDS011;26950;50.960;7.138;2022-08-01T10:43:41;4.68;;;3.10;;
41217;SDS011;26950;50.960;7.138;2022-08-01T10:46:08;5.18;;;3.33;;
41217;SDS011;26950;50.960;7.138;2022-08-01T10:48:38;4.53;;;3.50;;
41217;SDS011;26950;50.960;7.138;2022-08-01T10:51:09;4.35;;;3.50;;
41217;SDS011;26950;50.960;7.138;2022-08-01T10:53:35;3.65;;;3.20;;
41217;SDS011;26950;50.960;7.138;2022-08-01T10:56:02;5.20;;;3.88;;
41217;SDS011;26950;50.960;7.138;2022-08-01T10:58:32;6.13;;;3.75;;
41217;SDS011;26950;50.960;7.138;2022-08-01T11:01:14;4.20;;;3.25;;
41217;SDS011;26950;50.960;7.138;2022-08-01T11:03:43;4.30;;;3.30;;
41217;SDS011;26950;50.960;7.138;2022-08-01T11:06:15;4.47;;;3.40;;
41217;SDS011;26950;50.960;7.138;2022-08-01T11:08:43;4.43;;;3.15;;
41217;SDS011;26950;50.960;7.138;2022-08-01T11:11:17;6.03;;;3.47;;
41217;SDS011;26950;50.960;7.138;2022-08-01T11:14:02;5.28;;;3.17;;
41217;SDS011;26950;50.960;7.138;2022-08-01T11:16:36;4.13;;;3.10;;
41217;SDS011;26950;50.960;7.138;2022-08-01T11:19:04;5.63;;;3.00;;
41217;SDS011;26950;50.960;7.138;2022-08-01T11:27:23;3.67;;;2.72;;
41217;SDS011;26950;50.960;7.138;2022-08-01T11:32:52;5.03;;;3.10;;
41217;SDS011;26950;50.960;7.138;2022-08-01T11:35:21;4.47;;;3.17;;
41217;SDS011;26950;50.960;7.138;2022-08-01T11:37:50;4.15;;;3.10;;
41217;SDS011;26950;50.960;7.138;2022-08-01T11:40:18;3.42;;;2.78;;
41217;SDS011;26950;50.960;7.138;2022-08-01T11:42:45;4.90;;;3.10;;
41217;SDS011;26950;50.960;7.138;2022-08-01T11:45:12;8.90;;;3.60;;
41217;SDS011;26950;50.960;7.138;2022-08-01T11:47:44;4.65;;;3.03;;
41217;SDS011;26950;50.960;7.138;2022-08-01T11:50:30;3.80;;;2.65;;
41217;SDS011;26950;50.960;7.138;2022-08-01T11:53:00;5.40;;;3.10;;
41217;SDS011;26950;50.960;7.138;2022-08-01T11:55:28;4.20;;;3.00;;
41217;SDS011;26950;50.960;7.138;2022-08-01T11:57:59;4.35;;;2.60;;
41217;SDS011;26950;50.960;7.138;2022-08-01T12:00:26;4.55;;;2.67;;
41217;SDS011;26950;50.960;7.138;2022-08-01T12:02:57;2.90;;;2.60;;
41217;SDS011;26950;50.960;7.138;2022-08-01T12:05:25;3.67;;;2.70;;
41217;SDS011;26950;50.960;7.138;2022-08-01T12:07:53;5.13;;;2.85;;
41217;SDS011;26950;50.960;7.138;2022-08-01T12:10:20;5.25;;;2.95;;
41217;SDS011;26950;50.960;7.138;2022-08-01T12:12:50;7.13;;;3.00;;
41217;SDS011;26950;50.960;7.138;2022-08-01T12:15:18;2.85;;;2.53;;
41217;SDS011;26950;50.960;7.138;2022-08-01T12:17:46;2.92;;;2.55;;
41217;SDS011;26950;50.960;7.138;2022-08-01T12:20:15;6.00;;;2.97;;
41217;SDS011;26950;50.960;7.138;2022-08-01T12:22:45;4.53;;;2.75;;
41217;SDS011;26950;50.960;7.138;2022-08-01T12:25:13;6.45;;;2.80;;
41217;SDS011;26950;50.960;7.138;2022-08-01T12:27:42;3.40;;;2.85;;
41217;SDS011;26950;50.960;7.138;2022-08-01T12:30:11;3.30;;;2.40;;
41217;SDS011;26950;50.960;7.138;2022-08-01T12:32:40;2.80;;;2.35;;
41217;SDS011;26950;50.960;7.138;2022-08-01T12:35:08;3.33;;;2.80;;
41217;SDS011;26950;50.960;7.138;2022-08-01T12:37:38;4.25;;;2.50;;
41217;SDS011;26950;50.960;7.138;2022-08-01T12:40:09;3.92;;;2.40;;
41217;SDS011;26950;50.960;7.138;2022-08-01T12:42:37;3.17;;;2.22;;
41217;SDS011;26950;50.960;7.138;2022-08-01T12:45:05;3.83;;;2.00;;
41217;SDS011;26950;50.960;7.138;2022-08-01T12:47:33;5.90;;;2.40;;
41217;SDS011;26950;50.960;7.138;2022-08-01T12:50:01;3.65;;;2.00;;
41217;SDS011;26950;50.960;7.138;2022-08-01T12:52:29;4.07;;;2.20;;
41217;SDS011;26950;50.960;7.138;2022-08-01T12:55:02;3.30;;;2.00;;
41217;SDS011;26950;50.960;7.138;2022-08-01T12:57:31;2.10;;;1.90;;
41217;SDS011;26950;50.960;7.138;2022-08-01T13:00:05;2.58;;;2.00;;
41217;SDS011;26950;50.960;7.138;2022-08-01T13:02:32;5.22;;;2.30;;
41217;SDS011;26950;50.960;7.138;2022-08-01T13:05:00;2.88;;;2.20;;
41217;SDS011;26950;50.960;7.138;2022-08-01T13:07:34;4.22;;;1.88;;
41217;SDS011;26950;50.960;7.138;2022-08-01T13:10:03;3.42;;;2.20;;
41217;SDS011;26950;50.960;7.138;2022-08-01T13:12:30;4.03;;;2.03;;
41217;SDS011;26950;50.960;7.138;2022-08-01T13:14:56;3.75;;;1.80;;
41217;SDS011;26950;50.960;7.138;2022-08-01T13:17:30;2.13;;;1.73;;
41217;SDS011;26950;50.960;7.138;2022-08-01T13:19:57;1.83;;;1.70;;
41217;SDS011;26950;50.960;7.138;2022-08-01T13:22:31;2.03;;;1.65;;
41217;SDS011;26950;50.960;7.138;2022-08-01T13:25:09;1.90;;;1.58;;
41217;SDS011;26950;50.960;7.138;2022-08-01T13:27:36;4.30;;;1.50;;
41217;SDS011;26950;50.960;7.138;2022-08-01T13:30:12;2.08;;;1.60;;
41217;SDS011;26950;50.960;7.138;2022-08-01T13:32:40;3.70;;;1.50;;
41217;SDS011;26950;50.960;7.138;2022-08-01T13:35:09;2.92;;;1.50;;
41217;SDS011;26950;50.960;7.138;2022-08-01T13:37:37;12.80;;;1.98;;
41217;SDS011;26950;50.960;7.138;2022-08-01T13:40:05;2.05;;;1.50;;
41217;SDS011;26950;50.960;7.138;2022-08-01T13:42:34;3.90;;;1.58;;
41217;SDS011;26950;50.960;7.138;2022-08-01T13:45:01;1.90;;;1.55;;
41217;SDS011;26950;50.960;7.138;2022-08-01T13:47:28;3.13;;;1.30;;
41217;SDS011;26950;50.960;7.138;2022-08-01T13:49:55;1.65;;;1.27;;
41217;SDS011;26950;50.960;7.138;2022-08-01T13:52:25;1.48;;;1.20;;
41217;SDS011;26950;50.960;7.138;2022-08-01T13:54:51;1.48;;;1.10;;
41217;SDS011;26950;50.960;7.138;2022-08-01T13:57:18;2.25;;;1.10;;
41217;SDS011;26950;50.960;7.138;2022-08-01T13:59:46;2.72;;;1.20;;
41217;SDS011;26950;50.960;7.138;2022-08-01T14:02:12;1.52;;;1.05;;
41217;SDS011;26950;50.960;7.138;2022-08-01T14:04:39;1.70;;;1.40;;
41217;SDS011;26950;50.960;7.138;2022-08-01T14:07:05;1.10;;;1.00;;
41217;SDS011;26950;50.960;7.138;2022-08-01T14:09:32;2.65;;;1.17;;
41217;SDS011;26950;50.960;7.138;2022-08-01T14:11:58;1.25;;;1.10;;
41217;SDS011;26950;50.960;7.138;2022-08-01T14:14:25;1.20;;;1.10;;
41217;SDS011;26950;50.960;7.138;2022-08-01T14:16:53;1.40;;;1.20;;
41217;SDS011;26950;50.960;7.138;2022-08-01T14:19:19;5.90;;;1.50;;
41217;SDS011;26950;50.960;7.138;2022-08-01T14:21:46;5.32;;;1.40;;
41217;SDS011;26950;50.960;7.138;2022-08-01T14:24:12;17.15;;;1.80;;
41217;SDS011;26950;50.960;7.138;2022-08-01T14:26:39;2.10;;;1.25;;
41217;SDS011;26950;50.960;7.138;2022-08-01T14:29:05;2.33;;;1.60;;
41217;SDS011;26950;50.960;7.138;2022-08-01T14:31:32;2.33;;;1.15;;
41217;SDS011;26950;50.960;7.138;2022-08-01T14:34:00;2.45;;;1.20;;
41217;SDS011;26950;50.960;7.138;2022-08-01T14:36:26;2.33;;;1.25;;
41217;SDS011;26950;50.960;7.138;2022-08-01T14:38:53;2.05;;;1.00;;
41217;SDS011;26950;50.960;7.138;2022-08-01T14:41:19;1.27;;;1.17;;
41217;SDS011;26950;50.960;7.138;2022-08-01T14:43:45;2.42;;;1.48;;
41217;SDS011;26950;50.960;7.138;2022-08-01T14:46:12;1.20;;;1.10;;
41217;SDS011;26950;50.960;7.138;2022-08-01T14:48:39;0.95;;;0.95;;
41217;SDS011;26950;50.960;7.138;2022-08-01T14:51:07;1.38;;;0.98;;
41217;SDS011;26950;50.960;7.138;2022-08-01T14:53:34;1.27;;;1.17;;
41217;SDS011;26950;50.960;7.138;2022-08-01T14:56:01;2.88;;;1.30;;
41217;SDS011;26950;50.960;7.138;2022-08-01T14:58:29;1.83;;;1.27;;
41217;SDS011;26950;50.960;7.138;2022-08-01T15:00:55;1.95;;;1.55;;
41217;SDS011;26950;50.960;7.138;2022-08-01T15:03:22;1.75;;;1.20;;
41217;SDS011;26950;50.960;7.138;2022-08-01T15:05:48;1.63;;;1.20;;